createdAt,value
2018-08-25T00:00:25.422Z,4.40
2018-08-25T00:03:12.238Z,5.23
2018-08-25T00:05:45.952Z,4.60
2018-08-25T00:08:18.810Z,4.23
2018-08-25T00:10:51.941Z,4.10
2018-08-25T00:13:23.667Z,4.37
2018-08-25T00:15:59.396Z,4.40
2018-08-25T00:18:30.820Z,4.30
2018-08-25T00:21:04.563Z,4.40
2018-08-25T00:23:40.323Z,4.93
2018-08-25T00:26:22.153Z,4.47
2018-08-25T00:29:01.406Z,4.63
2018-08-25T00:31:34.443Z,4.70
2018-08-25T00:34:19.708Z,4.60
2018-08-25T00:36:57.073Z,4.80
2018-08-25T00:39:31.047Z,4.23
2018-08-25T00:42:04.216Z,4.10
2018-08-25T00:44:37.334Z,4.80
2018-08-25T00:47:08.862Z,4.90
2018-08-25T00:49:43.061Z,4.87
2018-08-25T00:52:15.082Z,4.80
2018-08-25T00:54:57.007Z,4.27
2018-08-25T00:57:29.790Z,4.70
2018-08-25T01:00:08.802Z,5.13
2018-08-25T01:02:44.653Z,4.93
2018-08-25T01:05:17.543Z,4.97
2018-08-25T01:07:51.040Z,3.53
2018-08-25T01:10:33.548Z,4.07
2018-08-25T01:13:06.029Z,4.40
2018-08-25T01:15:36.803Z,4.43
2018-08-25T01:18:12.954Z,4.57
2018-08-25T01:20:50.996Z,4.67
2018-08-25T01:23:22.385Z,4.13
2018-08-25T01:25:55.205Z,4.00
2018-08-25T01:28:28.360Z,3.80
2018-08-25T01:31:01.130Z,4.00
2018-08-25T01:33:33.313Z,4.47
2018-08-25T01:36:08.660Z,4.13
2018-08-25T01:38:41.024Z,4.37
2018-08-25T01:41:17.075Z,5.30
2018-08-25T01:43:50.973Z,7.03
2018-08-25T01:46:23.879Z,6.07
2018-08-25T01:48:59.600Z,5.20
2018-08-25T01:54:15.208Z,5.63
2018-08-25T01:56:48.104Z,6.23
2018-08-25T01:59:21.720Z,6.10
2018-08-25T02:01:58.176Z,7.43
2018-08-25T02:04:32.590Z,6.67
2018-08-25T02:07:06.940Z,5.30
2018-08-25T02:09:40.196Z,8.17
2018-08-25T02:12:13.469Z,6.37
2018-08-25T02:14:48.692Z,7.77
2018-08-25T02:17:26.465Z,6.80
2018-08-25T02:19:57.863Z,9.17
2018-08-25T02:22:39.559Z,9.93
2018-08-25T02:28:14.527Z,8.00
2018-08-25T02:30:48.021Z,10.57
2018-08-25T02:33:21.432Z,23.40
2018-08-25T02:35:55.844Z,14.20
2018-08-25T02:38:35.716Z,16.77
2018-08-25T02:41:16.978Z,12.00
2018-08-25T02:43:49.737Z,17.37
2018-08-25T02:46:23.393Z,18.90
2018-08-25T02:49:06.890Z,13.77
2018-08-25T02:52:01.417Z,13.53
2018-08-25T02:54:34.491Z,12.57
2018-08-25T02:57:09.004Z,12.17
2018-08-25T02:59:52.144Z,13.43
2018-08-25T03:02:24.340Z,11.70
2018-08-25T03:04:58.113Z,7.83
2018-08-25T03:07:35.940Z,8.10
2018-08-25T03:10:11.659Z,8.77
2018-08-25T03:12:42.923Z,8.20
2018-08-25T03:15:23.246Z,8.57
2018-08-25T03:17:55.380Z,8.47
2018-08-25T03:20:32.746Z,8.40
2018-08-25T03:23:04.690Z,8.27
2018-08-25T03:28:36.920Z,7.87
2018-08-25T03:31:08.459Z,8.97
2018-08-25T03:33:42.072Z,8.67
2018-08-25T03:36:12.384Z,8.63
2018-08-25T03:38:46.035Z,8.00
2018-08-25T03:41:21.516Z,7.47
2018-08-25T03:43:58.364Z,7.70
2018-08-25T03:46:28.926Z,6.43
2018-08-25T03:48:59.434Z,7.17
2018-08-25T03:51:31.831Z,7.93
2018-08-25T03:54:12.670Z,8.80
2018-08-25T03:56:50.473Z,8.40
2018-08-25T03:59:26.446Z,10.13
2018-08-25T04:01:57.617Z,10.97
2018-08-25T04:04:30.634Z,12.10
2018-08-25T04:07:02.291Z,11.50
2018-08-25T04:09:34.503Z,10.97
2018-08-25T04:12:06.782Z,8.30
2018-08-25T04:14:39.457Z,11.33
2018-08-25T04:17:12.045Z,10.43
2018-08-25T04:19:42.534Z,14.97
2018-08-25T04:22:18.393Z,10.30
2018-08-25T04:24:52.955Z,11.77
2018-08-25T04:27:43.317Z,9.63
2018-08-25T04:30:20.486Z,13.07
2018-08-25T04:32:52.288Z,14.10
2018-08-25T04:35:26.328Z,11.97
2018-08-25T04:37:57.567Z,11.73
2018-08-25T04:40:34.741Z,12.07
2018-08-25T04:43:05.313Z,10.60
2018-08-25T04:45:45.677Z,12.10
2018-08-25T04:48:19.338Z,9.40
2018-08-25T04:50:56.346Z,13.43
2018-08-25T04:53:33.413Z,13.80
2018-08-25T04:56:07.455Z,7.93
2018-08-25T04:58:38.280Z,8.30
2018-08-25T05:01:11.603Z,8.77
2018-08-25T05:03:44.177Z,9.23
2018-08-25T05:06:20.666Z,7.33
2018-08-25T05:08:57.505Z,19.20
2018-08-25T05:11:30.829Z,14.80
2018-08-25T05:14:03.754Z,16.87
2018-08-25T05:16:35.983Z,12.43
2018-08-25T05:19:11.106Z,15.70
2018-08-25T05:21:42.498Z,13.60
2018-08-25T05:24:19.618Z,14.00
2018-08-25T05:26:51.270Z,9.60
2018-08-25T05:29:24.492Z,7.43
2018-08-25T05:31:58.525Z,7.97
2018-08-25T05:34:34.191Z,12.63
2018-08-25T05:37:08.059Z,14.27
2018-08-25T05:39:41.893Z,11.83
2018-08-25T05:42:18.516Z,9.80
2018-08-25T05:44:54.661Z,11.27
2018-08-25T05:47:33.161Z,12.97
2018-08-25T05:50:07.452Z,12.43
2018-08-25T05:52:38.306Z,17.30
2018-08-25T05:55:15.604Z,13.20
2018-08-25T05:57:54.305Z,14.60
2018-08-25T06:00:32.919Z,19.53
2018-08-25T06:03:07.251Z,22.73
2018-08-25T06:05:43.711Z,15.03
2018-08-25T06:08:20.146Z,16.97
2018-08-25T06:10:53.591Z,12.20
2018-08-25T06:13:32.743Z,9.17
2018-08-25T06:16:07.975Z,8.70
2018-08-25T06:18:40.922Z,8.43
2018-08-25T06:21:15.059Z,12.60
2018-08-25T06:23:46.810Z,8.93
2018-08-25T06:26:21.714Z,8.33
2018-08-25T06:28:52.727Z,10.40
2018-08-25T06:31:24.280Z,8.93
2018-08-25T06:33:59.449Z,9.63
2018-08-25T06:36:45.798Z,17.10
2018-08-25T06:39:16.451Z,11.53
2018-08-25T06:41:52.456Z,20.97
2018-08-25T06:44:31.623Z,21.03
2018-08-25T06:47:05.373Z,22.67
2018-08-25T06:49:39.630Z,25.53
2018-08-25T06:52:19.970Z,23.97
2018-08-25T06:54:51.555Z,24.23
2018-08-25T06:57:23.190Z,21.80
2018-08-25T07:00:03.364Z,17.63
2018-08-25T07:02:37.563Z,14.10
2018-08-25T07:05:13.678Z,16.13
2018-08-25T07:07:46.018Z,27.40
2018-08-25T07:10:20.075Z,14.40
2018-08-25T07:12:54.426Z,28.20
2018-08-25T07:15:31.050Z,13.03
2018-08-25T07:18:07.885Z,14.90
2018-08-25T07:20:45.367Z,11.47
2018-08-25T07:23:18.669Z,8.17
2018-08-25T07:25:56.326Z,7.83
2018-08-25T07:28:29.764Z,9.57
2018-08-25T07:31:08.737Z,6.03
2018-08-25T07:36:33.408Z,6.93
2018-08-25T07:39:05.681Z,6.73
2018-08-25T07:41:40.702Z,5.27
2018-08-25T07:44:11.294Z,7.83
2018-08-25T07:46:47.262Z,21.50
2018-08-25T07:49:20.673Z,6.80
2018-08-25T07:51:54.860Z,6.67
2018-08-25T07:54:27.283Z,6.00
2018-08-25T07:57:06.173Z,34.40
2018-08-25T07:59:40.424Z,12.50
2018-08-25T08:02:16.055Z,6.40
2018-08-25T08:04:56.635Z,6.90
2018-08-25T08:07:28.090Z,7.40
2018-08-25T08:10:04.148Z,10.50
2018-08-25T08:12:37.441Z,7.10
2018-08-25T08:15:12.181Z,5.03
2018-08-25T08:17:47.209Z,4.37
2018-08-25T08:20:24.162Z,4.20
2018-08-25T08:25:38.429Z,5.47
2018-08-25T08:28:18.460Z,4.60
2018-08-25T08:30:50.015Z,4.47
2018-08-25T08:33:20.910Z,5.33
2018-08-25T08:35:54.628Z,4.50
2018-08-25T08:38:29.477Z,4.90
2018-08-25T08:41:00.101Z,4.90
2018-08-25T08:43:35.874Z,4.90
2018-08-25T08:46:12.938Z,5.17
2018-08-25T08:48:52.107Z,5.10
2018-08-25T08:51:26.581Z,5.17
2018-08-25T08:53:59.867Z,5.30
2018-08-25T08:56:37.102Z,4.80
2018-08-25T08:59:12.711Z,4.60
2018-08-25T09:01:46.232Z,4.40
2018-08-25T09:04:21.409Z,4.47
2018-08-25T09:06:53.036Z,5.30
2018-08-25T09:12:29.151Z,5.23
2018-08-25T09:15:05.249Z,4.50
2018-08-25T09:17:40.792Z,5.40
2018-08-25T09:20:16.001Z,5.60
2018-08-25T09:22:52.256Z,6.20
2018-08-25T09:25:35.726Z,4.57
2018-08-25T09:28:10.847Z,4.37
2018-08-25T09:30:45.390Z,4.60
2018-08-25T09:33:18.516Z,4.60
2018-08-25T09:35:51.002Z,4.90
2018-08-25T09:38:23.002Z,5.00
2018-08-25T09:40:55.373Z,4.70
2018-08-25T09:43:29.000Z,5.20
2018-08-25T09:46:05.992Z,4.40
2018-08-25T09:48:38.974Z,4.80
2018-08-25T09:51:12.372Z,5.20
2018-08-25T09:53:47.397Z,5.23
2018-08-25T09:56:19.461Z,4.97
2018-08-25T09:58:55.613Z,5.73
2018-08-25T10:01:36.475Z,4.67
2018-08-25T10:04:09.864Z,4.90
2018-08-25T10:06:40.056Z,4.90
2018-08-25T10:09:16.121Z,4.50
2018-08-25T10:11:48.401Z,4.27
2018-08-25T10:14:22.065Z,4.77
2018-08-25T10:16:53.341Z,4.90
2018-08-25T10:19:26.850Z,5.93
2018-08-25T10:22:04.181Z,5.40
2018-08-25T10:24:41.208Z,5.23
2018-08-25T10:27:15.167Z,5.37
2018-08-25T10:29:49.320Z,4.90
2018-08-25T10:32:27.334Z,5.93
2018-08-25T10:35:03.863Z,4.50
2018-08-25T10:37:36.827Z,4.60
2018-08-25T10:40:07.822Z,4.77
2018-08-25T10:42:41.206Z,5.13
2018-08-25T10:45:17.807Z,4.87
2018-08-25T10:47:50.558Z,5.07
2018-08-25T10:50:20.960Z,5.50
2018-08-25T10:52:56.506Z,4.70
2018-08-25T10:55:31.719Z,4.87
2018-08-25T10:58:07.249Z,5.73
2018-08-25T11:00:45.770Z,5.20
2018-08-25T11:03:24.978Z,5.57
2018-08-25T11:06:01.930Z,5.53
2018-08-25T11:08:34.354Z,5.50
2018-08-25T11:11:05.943Z,4.67
2018-08-25T11:13:40.003Z,5.50
2018-08-25T11:16:14.374Z,4.80
2018-08-25T11:18:45.759Z,4.80
2018-08-25T11:21:16.419Z,5.17
2018-08-25T11:23:54.484Z,4.87
2018-08-25T11:26:34.858Z,4.80
2018-08-25T11:29:06.117Z,5.07
2018-08-25T11:31:40.862Z,4.80
2018-08-25T11:34:13.233Z,4.33
2018-08-25T11:36:49.537Z,4.90
2018-08-25T11:39:24.906Z,4.40
2018-08-25T11:42:00.224Z,4.50
2018-08-25T11:44:31.337Z,4.47
2018-08-25T11:47:14.848Z,4.70
2018-08-25T11:49:52.307Z,4.23
2018-08-25T11:52:26.115Z,4.77
2018-08-25T11:54:59.478Z,4.17
2018-08-25T11:57:33.761Z,4.37
2018-08-25T12:00:09.927Z,4.50
2018-08-25T12:02:40.757Z,4.60
2018-08-25T12:05:13.203Z,5.07
2018-08-25T12:07:46.870Z,4.77
2018-08-25T12:10:26.383Z,4.00
2018-08-25T12:12:59.689Z,4.33
2018-08-25T12:15:39.539Z,4.50
2018-08-25T12:18:14.055Z,4.57
2018-08-25T12:20:46.198Z,4.30
2018-08-25T12:23:22.143Z,4.10
2018-08-25T12:25:58.186Z,4.40
2018-08-25T12:28:38.140Z,4.40
2018-08-25T12:31:17.689Z,4.50
2018-08-25T12:33:54.295Z,4.57
2018-08-25T12:36:28.693Z,4.30
2018-08-25T12:38:59.848Z,4.40
2018-08-25T12:41:33.251Z,4.67
2018-08-25T12:44:08.388Z,4.00
2018-08-25T12:46:41.844Z,3.92
2018-08-25T12:52:09.506Z,4.05
2018-08-25T12:54:43.231Z,3.87
2018-08-25T12:57:19.089Z,3.95
2018-08-25T12:59:52.866Z,3.85
2018-08-25T13:02:24.313Z,3.83
2018-08-25T13:04:59.590Z,4.22
2018-08-25T13:07:34.957Z,4.22
2018-08-25T13:10:06.817Z,4.08
2018-08-25T13:15:25.815Z,4.00
2018-08-25T13:17:57.976Z,4.15
2018-08-25T13:23:10.171Z,4.40
2018-08-25T13:25:46.277Z,4.30
2018-08-25T13:28:25.502Z,3.72
2018-08-25T13:30:57.987Z,3.90
2018-08-25T13:33:34.188Z,3.80
2018-08-25T13:36:07.642Z,4.30
2018-08-25T13:38:42.975Z,4.35
2018-08-25T13:41:14.740Z,4.20
2018-08-25T13:43:50.407Z,4.00
2018-08-25T13:46:24.973Z,3.47
2018-08-25T13:48:56.374Z,3.95
2018-08-25T13:51:27.879Z,3.87
2018-08-25T13:54:02.749Z,3.60
2018-08-25T13:56:34.293Z,3.65
2018-08-25T13:59:07.398Z,3.72
2018-08-25T14:11:20.454Z,3.90
2018-08-25T14:13:56.956Z,5.00
2018-08-25T14:16:34.451Z,4.20
2018-08-25T14:19:06.787Z,3.85
2018-08-25T14:21:40.264Z,4.35
2018-08-25T14:24:13.955Z,4.45
2018-08-25T14:26:45.810Z,4.47
2018-08-25T14:29:17.426Z,4.58
2018-08-25T14:31:50.981Z,4.00
2018-08-25T14:34:23.601Z,4.03
2018-08-25T14:36:54.061Z,3.65
2018-08-25T14:39:30.865Z,4.03
2018-08-25T14:43:12.623Z,4.12
2018-08-25T14:45:53.236Z,3.80
2018-08-25T14:48:23.671Z,3.47
2018-08-25T14:50:57.933Z,3.08
2018-08-25T14:53:29.061Z,3.33
2018-08-25T14:56:02.868Z,3.75
2018-08-25T14:58:37.393Z,3.72
2018-08-25T15:01:13.756Z,3.50
2018-08-25T15:03:48.008Z,3.77
2018-08-25T15:06:24.761Z,3.45
2018-08-25T15:08:56.165Z,3.20
2018-08-25T15:11:32.013Z,3.50
2018-08-25T15:14:07.384Z,4.08
2018-08-25T15:16:40.390Z,3.50
2018-08-25T15:19:19.401Z,3.42
2018-08-25T15:21:48.956Z,3.00
2018-08-25T15:24:18.534Z,4.30
2018-08-25T15:26:52.888Z,3.47
2018-08-25T15:29:27.992Z,3.65
2018-08-25T15:32:01.784Z,3.65
2018-08-25T15:34:39.870Z,4.05
2018-08-25T15:37:11.558Z,3.37
2018-08-25T15:39:47.848Z,3.95
2018-08-25T15:42:21.853Z,3.75
2018-08-25T15:44:54.603Z,3.90
2018-08-25T15:47:32.434Z,3.60
2018-08-25T15:50:04.162Z,3.67
2018-08-25T15:52:40.123Z,3.75
2018-08-25T15:55:17.741Z,3.20
2018-08-25T15:57:50.928Z,4.67
2018-08-25T16:00:25.864Z,4.90
2018-08-25T16:03:01.294Z,4.22
2018-08-25T16:05:41.956Z,3.47
2018-08-25T16:08:14.181Z,3.33
2018-08-25T16:10:46.362Z,3.75
2018-08-25T16:13:20.217Z,3.70
2018-08-25T16:15:52.036Z,3.90
2018-08-25T16:18:25.057Z,6.10
2018-08-25T16:21:02.305Z,5.22
2018-08-25T16:23:33.649Z,6.08
2018-08-25T16:26:08.668Z,3.73
2018-08-25T16:28:41.251Z,4.00
2018-08-25T16:31:11.452Z,4.23
2018-08-25T16:33:45.945Z,4.03
2018-08-25T16:36:19.664Z,4.07
2018-08-25T16:38:56.143Z,3.67
2018-08-25T16:41:28.910Z,3.43
2018-08-25T16:44:01.492Z,4.03
2018-08-25T16:46:35.743Z,3.20
2018-08-25T16:49:12.731Z,3.70
2018-08-25T16:51:51.788Z,4.50
2018-08-25T16:54:32.811Z,4.27
2018-08-25T16:57:03.928Z,3.80
2018-08-25T16:59:35.684Z,3.40
2018-08-25T17:02:08.719Z,3.50
2018-08-25T17:04:41.008Z,3.57
2018-08-25T17:07:15.863Z,3.83
2018-08-25T17:09:48.191Z,3.13
2018-08-25T17:12:20.340Z,3.40
2018-08-25T17:15:10.998Z,3.57
2018-08-25T17:17:42.108Z,3.03
2018-08-25T17:20:16.206Z,3.63
2018-08-25T17:22:47.719Z,3.20
2018-08-25T17:25:20.158Z,3.00
2018-08-25T17:27:50.396Z,3.37
2018-08-25T17:30:23.868Z,3.63
2018-08-25T17:32:57.129Z,3.63
2018-08-25T17:35:30.010Z,3.37
2018-08-25T17:38:03.099Z,3.17
2018-08-25T17:40:41.227Z,3.62
2018-08-25T17:43:16.253Z,3.40
2018-08-25T17:45:47.720Z,4.30
2018-08-25T17:48:20.632Z,3.10
2018-08-25T17:50:51.974Z,4.10
2018-08-25T17:53:27.907Z,3.40
2018-08-25T17:56:01.887Z,3.62
2018-08-25T17:58:36.766Z,3.00
2018-08-25T18:01:18.891Z,3.23
2018-08-25T18:03:52.409Z,3.47
2018-08-25T18:06:23.781Z,3.53
2018-08-25T18:08:55.392Z,3.37
2018-08-25T18:11:31.899Z,3.70
2018-08-25T18:14:13.478Z,3.67
2018-08-25T18:16:48.310Z,3.67
2018-08-25T18:19:18.543Z,3.43
2018-08-25T18:21:54.788Z,3.30
2018-08-25T18:24:27.606Z,4.00
2018-08-25T18:27:02.560Z,3.80
2018-08-25T18:29:36.348Z,4.00
2018-08-25T18:32:08.099Z,3.80
2018-08-25T18:34:44.786Z,3.67
2018-08-25T18:37:19.896Z,3.60
2018-08-25T18:39:52.436Z,3.17
2018-08-25T18:42:25.370Z,3.53
2018-08-25T18:44:56.827Z,4.00
2018-08-25T18:54:29.256Z,3.90
2018-08-25T18:57:01.409Z,3.70
2018-08-25T18:59:33.987Z,3.17
2018-08-25T19:02:05.051Z,4.23
2018-08-25T19:04:38.219Z,3.63
2018-08-25T19:07:10.432Z,3.87
2018-08-25T19:09:42.746Z,3.60
2018-08-25T19:12:13.235Z,3.50
2018-08-25T19:14:44.607Z,3.73
2018-08-25T19:17:15.917Z,3.80
2018-08-25T19:19:51.149Z,3.60
2018-08-25T19:22:22.896Z,4.17
2018-08-25T19:24:54.537Z,3.80
2018-08-25T19:27:31.583Z,4.20
2018-08-25T19:32:42.326Z,3.67
2018-08-25T19:35:12.807Z,3.50
2018-08-25T19:37:44.209Z,3.57
2018-08-25T19:40:18.160Z,3.70
2018-08-25T19:42:50.774Z,3.97
2018-08-25T19:45:24.433Z,4.00
2018-08-25T19:47:56.143Z,3.63
2018-08-25T19:50:30.374Z,3.50
2018-08-25T19:53:01.027Z,3.90
2018-08-25T19:55:34.698Z,3.80
2018-08-25T19:58:05.812Z,3.73
2018-08-25T20:00:37.151Z,3.90
2018-08-25T20:03:10.174Z,4.10
2018-08-25T20:05:41.447Z,4.20
2018-08-25T20:08:13.831Z,3.83
2018-08-25T20:10:47.932Z,3.87
2018-08-25T20:13:18.468Z,3.40
2018-08-25T20:15:49.245Z,4.10
2018-08-25T20:18:19.032Z,4.03
2018-08-25T20:20:48.653Z,3.77
2018-08-25T20:23:22.806Z,4.57
2018-08-25T20:25:53.333Z,4.03
2018-08-25T20:28:25.134Z,4.80
2018-08-25T20:30:58.196Z,3.63
2018-08-25T20:33:34.210Z,3.70
2018-08-25T20:36:04.723Z,3.60
2018-08-25T20:38:42.514Z,4.40
2018-08-25T20:41:12.122Z,3.83
2018-08-25T20:43:46.824Z,4.10
2018-08-25T20:46:23.553Z,3.90
2018-08-25T20:48:55.783Z,3.67
2018-08-25T20:51:28.427Z,4.40
2018-08-25T20:54:00.453Z,4.67
2018-08-25T20:56:34.307Z,4.50
2018-08-25T20:59:08.119Z,4.47
2018-08-25T21:01:40.731Z,4.40
2018-08-25T21:04:11.297Z,4.07
2018-08-25T21:06:42.819Z,4.63
2018-08-25T21:09:18.381Z,4.27
2018-08-25T21:11:50.238Z,4.40
2018-08-25T21:14:24.461Z,4.20
2018-08-25T21:16:59.121Z,4.90
2018-08-25T21:19:33.811Z,4.33
2018-08-25T21:22:06.934Z,4.63
2018-08-25T21:24:43.424Z,4.77
2018-08-25T21:27:14.628Z,5.03
2018-08-25T21:29:49.381Z,5.40
2018-08-25T21:32:21.609Z,4.93
2018-08-25T21:34:53.808Z,4.50
2018-08-25T21:37:26.748Z,4.47
2018-08-25T21:40:00.824Z,4.37
2018-08-25T21:42:31.333Z,4.53
2018-08-25T21:45:04.744Z,4.23
2018-08-25T21:47:35.183Z,4.17
2018-08-25T21:50:04.871Z,4.37
2018-08-25T21:52:34.990Z,4.00
2018-08-25T21:55:08.231Z,5.17
2018-08-25T21:57:38.647Z,4.50
2018-08-25T22:00:09.699Z,5.20
2018-08-25T22:02:43.271Z,4.33
2018-08-25T22:05:24.567Z,4.70
2018-08-25T22:07:57.371Z,4.77
2018-08-25T22:10:31.349Z,4.83
2018-08-25T22:13:01.246Z,4.90
2018-08-25T22:15:36.987Z,4.63
2018-08-25T22:18:11.916Z,4.40
2018-08-25T22:20:58.515Z,4.87
2018-08-25T22:23:31.144Z,5.07
2018-08-25T22:26:02.371Z,4.50
2018-08-25T22:28:34.093Z,5.13
2018-08-25T22:31:06.183Z,5.33
2018-08-25T22:33:40.829Z,4.97
2018-08-25T22:36:11.809Z,5.40
2018-08-25T22:38:42.785Z,6.03
2018-08-25T22:41:13.732Z,4.57
2018-08-25T22:43:44.912Z,5.50
2018-08-25T22:46:19.006Z,5.33
2018-08-25T22:48:52.022Z,4.57
2018-08-25T22:51:22.523Z,4.03
2018-08-25T22:53:55.002Z,4.83
2018-08-25T22:56:32.135Z,5.70
2018-08-25T22:59:01.663Z,4.40
2018-08-25T23:01:34.970Z,4.47
2018-08-25T23:04:05.982Z,4.30
2018-08-25T23:06:50.253Z,4.83
2018-08-25T23:09:21.208Z,4.73
2018-08-25T23:11:52.698Z,4.67
2018-08-25T23:14:26.747Z,5.10
2018-08-25T23:16:59.432Z,4.50
2018-08-25T23:19:35.273Z,4.23
2018-08-25T23:22:06.844Z,4.83
2018-08-25T23:24:41.430Z,5.00
2018-08-25T23:27:12.824Z,4.33
2018-08-25T23:29:44.813Z,4.90
2018-08-25T23:32:19.974Z,4.77
2018-08-25T23:34:52.255Z,5.23
2018-08-25T23:37:24.923Z,4.10
2018-08-25T23:40:00.113Z,4.43
2018-08-25T23:42:33.521Z,4.40
2018-08-25T23:45:05.806Z,4.27
2018-08-25T23:47:39.457Z,4.40
2018-08-25T23:50:12.232Z,4.47
2018-08-25T23:52:41.853Z,4.70
2018-08-25T23:55:17.483Z,4.30
2018-08-25T23:57:47.743Z,4.10
